createdAt,value
2023-04-18T00:00:28.336Z,15.63
2023-04-18T00:05:30.093Z,18.55
2023-04-18T00:10:32.813Z,16.65
2023-04-18T00:15:37.409Z,16.98
2023-04-18T00:20:39.282Z,22.35
2023-04-18T00:25:40.978Z,18.52
2023-04-18T00:30:42.633Z,19.75
2023-04-18T00:35:44.423Z,19.73
2023-04-18T00:40:46.085Z,19.77
2023-04-18T00:45:47.661Z,21.13
2023-04-18T00:50:49.476Z,21.40
2023-04-18T00:55:51.421Z,18.75
2023-04-18T01:00:54.708Z,19.45
2023-04-18T01:05:57.506Z,24.92
2023-04-18T01:11:00.045Z,22.88
2023-04-18T01:16:01.750Z,20.60
2023-04-18T01:21:06.380Z,23.13
2023-04-18T01:26:08.228Z,22.80
2023-04-18T01:31:09.996Z,22.38
2023-04-18T01:36:11.688Z,22.52
2023-04-18T01:41:13.373Z,25.77
2023-04-18T01:46:17.303Z,21.33
2023-04-18T01:51:18.945Z,21.45
2023-04-18T01:56:20.973Z,20.15
2023-04-18T02:01:22.899Z,20.30
2023-04-18T02:06:24.651Z,19.77
2023-04-18T02:11:26.343Z,22.33
2023-04-18T02:16:28.188Z,18.35
2023-04-18T02:21:30.729Z,21.27
2023-04-18T02:26:32.425Z,20.45
2023-04-18T02:31:34.089Z,19.38
2023-04-18T02:36:35.894Z,21.85
2023-04-18T02:41:39.346Z,21.15
2023-04-18T02:46:41.075Z,18.63
2023-04-18T02:51:46.929Z,18.63
2023-04-18T02:56:49.375Z,20.08
2023-04-18T03:02:14.065Z,19.10
2023-04-18T03:07:23.016Z,21.80
2023-04-18T03:12:26.389Z,19.23
2023-04-18T03:17:28.639Z,21.88
2023-04-18T03:22:30.546Z,20.75
2023-04-18T03:27:33.985Z,20.92
2023-04-18T03:32:36.550Z,22.65
2023-04-18T03:37:38.535Z,21.10
2023-04-18T03:42:40.848Z,24.20
2023-04-18T03:47:42.516Z,19.85
2023-04-18T03:52:44.700Z,23.60
2023-04-18T03:57:47.553Z,18.90
2023-04-18T04:02:56.888Z,21.40
2023-04-18T04:07:58.942Z,18.33
2023-04-18T04:13:00.876Z,19.27
2023-04-18T04:18:06.207Z,21.50
2023-04-18T04:23:10.452Z,23.15
2023-04-18T04:28:14.551Z,20.88
2023-04-18T04:33:33.234Z,19.20
2023-04-18T04:38:38.497Z,20.88
2023-04-18T04:43:41.293Z,20.17
2023-04-18T04:48:44.041Z,20.35
2023-04-18T04:53:45.803Z,19.48
2023-04-18T04:58:47.724Z,21.90
2023-04-18T05:04:00.613Z,17.85
2023-04-18T05:09:02.406Z,18.30
2023-04-18T05:14:04.065Z,19.83
2023-04-18T05:19:05.927Z,20.35
2023-04-18T05:24:08.009Z,21.27
2023-04-18T05:29:09.865Z,20.20
2023-04-18T05:34:11.787Z,18.98
2023-04-18T05:39:14.108Z,21.42
2023-04-18T05:44:17.014Z,19.73
2023-04-18T05:49:19.732Z,18.02
2023-04-18T05:54:21.717Z,18.55
2023-04-18T05:59:23.577Z,18.33
2023-04-18T06:04:25.599Z,19.83
2023-04-18T06:09:27.357Z,21.70
2023-04-18T06:14:29.473Z,19.15
2023-04-18T06:19:31.414Z,18.23
2023-04-18T06:24:33.282Z,20.10
2023-04-18T06:29:36.206Z,20.45
2023-04-18T06:34:40.757Z,17.67
2023-04-18T06:39:44.767Z,20.23
2023-04-18T06:44:46.621Z,19.52
2023-04-18T06:49:48.314Z,15.77
2023-04-18T06:54:49.862Z,19.77
2023-04-18T06:59:51.473Z,17.70
2023-04-18T07:04:53.139Z,19.65
2023-04-18T07:09:55.017Z,19.73
2023-04-18T07:14:56.611Z,17.90
2023-04-18T07:19:58.576Z,19.85
2023-04-18T07:25:00.382Z,18.02
2023-04-18T07:30:02.778Z,20.63
2023-04-18T07:35:04.882Z,19.92
2023-04-18T07:40:07.058Z,18.45
2023-04-18T07:45:08.936Z,18.25
2023-04-18T07:50:10.979Z,19.75
2023-04-18T07:55:12.546Z,18.83
2023-04-18T08:00:14.798Z,19.10
2023-04-18T08:05:16.607Z,18.92
2023-04-18T08:10:18.257Z,19.00
2023-04-18T08:15:22.011Z,18.20
2023-04-18T08:20:23.697Z,19.92
2023-04-18T08:25:25.324Z,18.40
2023-04-18T08:30:26.949Z,16.33
2023-04-18T08:35:28.545Z,21.00
2023-04-18T08:40:30.441Z,17.58
2023-04-18T08:45:33.434Z,22.83
2023-04-18T08:50:35.275Z,17.52
2023-04-18T08:55:37.500Z,21.75
2023-04-18T09:00:39.502Z,18.45
2023-04-18T09:06:04.254Z,18.02
2023-04-18T09:11:29.415Z,16.33
2023-04-18T09:16:47.092Z,16.95
2023-04-18T09:21:58.116Z,18.88
2023-04-18T09:27:01.368Z,19.63
2023-04-18T09:32:03.375Z,20.73
2023-04-18T09:37:14.971Z,19.58
2023-04-18T09:42:17.323Z,20.30
2023-04-18T09:47:18.884Z,17.90
2023-04-18T09:52:21.275Z,18.25
2023-04-18T09:57:27.434Z,17.80
2023-04-18T10:02:35.354Z,18.17
2023-04-18T10:07:38.179Z,16.52
2023-04-18T10:12:41.653Z,17.80
2023-04-18T10:18:03.588Z,16.17
2023-04-18T10:23:35.079Z,16.00
2023-04-18T10:28:53.151Z,18.10
2023-04-18T10:39:21.141Z,15.55
2023-04-18T10:44:23.562Z,16.92
2023-04-18T10:49:28.323Z,17.10
2023-04-18T10:54:42.126Z,16.92
2023-04-18T10:59:48.053Z,15.93
2023-04-18T11:04:56.022Z,17.85
2023-04-18T11:09:57.644Z,15.88
2023-04-18T11:15:01.398Z,16.50
2023-04-18T11:20:08.720Z,15.80
2023-04-18T11:25:10.891Z,17.48
2023-04-18T11:30:13.770Z,15.90
2023-04-18T11:35:16.086Z,15.00
2023-04-18T11:40:17.759Z,15.10
2023-04-18T11:45:19.380Z,14.65
2023-04-18T11:50:20.984Z,14.80
2023-04-18T11:55:25.139Z,14.30
2023-04-18T12:00:34.505Z,14.95
2023-04-18T12:05:39.026Z,15.23
2023-04-18T12:10:49.084Z,16.23
2023-04-18T12:20:54.248Z,16.98
2023-04-18T12:26:01.289Z,16.85
2023-04-18T12:31:05.888Z,16.80
2023-04-18T12:36:08.631Z,16.33
2023-04-18T12:41:10.218Z,15.13
2023-04-18T12:46:11.811Z,15.35
2023-04-18T12:51:13.588Z,14.45
2023-04-18T12:56:15.488Z,14.95
2023-04-18T13:01:17.218Z,17.20
2023-04-18T13:06:18.891Z,13.40
2023-04-18T13:11:22.417Z,13.18
2023-04-18T13:16:24.049Z,15.75
2023-04-18T13:21:26.000Z,11.25
2023-04-18T13:26:27.594Z,14.25
2023-04-18T13:31:29.515Z,11.90
2023-04-18T13:36:31.774Z,12.02
2023-04-18T13:41:35.970Z,10.43
2023-04-18T13:46:37.610Z,10.30
2023-04-18T13:51:39.268Z,11.05
2023-04-18T13:56:41.848Z,10.23
2023-04-18T14:01:43.502Z,9.82
2023-04-18T14:06:45.831Z,8.63
2023-04-18T14:11:48.621Z,10.13
2023-04-18T14:16:50.294Z,9.70
2023-04-18T14:21:51.906Z,8.95
2023-04-18T14:26:53.493Z,10.15
2023-04-18T14:31:55.039Z,9.75
2023-04-18T14:36:56.622Z,7.78
2023-04-18T14:41:58.178Z,7.93
2023-04-18T14:46:59.799Z,9.32
2023-04-18T14:52:01.502Z,7.05
2023-04-18T14:57:03.062Z,8.35
2023-04-18T15:02:04.909Z,9.07
2023-04-18T15:07:06.913Z,7.72
2023-04-18T15:12:08.534Z,6.63
2023-04-18T15:17:10.095Z,6.55
2023-04-18T15:22:11.878Z,7.30
2023-04-18T15:27:13.527Z,7.60
2023-04-18T15:32:15.214Z,7.97
2023-04-18T15:37:16.922Z,8.20
2023-04-18T15:42:18.662Z,7.38
2023-04-18T15:47:20.690Z,8.93
2023-04-18T15:52:22.272Z,8.85
2023-04-18T15:57:23.951Z,7.53
2023-04-18T16:02:26.324Z,7.75
2023-04-18T16:07:27.897Z,6.95
2023-04-18T16:12:29.648Z,7.28
2023-04-18T16:17:31.315Z,7.60
2023-04-18T16:22:32.914Z,6.38
2023-04-18T16:27:34.455Z,5.95
2023-04-18T16:32:38.078Z,7.05
2023-04-18T16:37:40.450Z,7.15
2023-04-18T16:42:42.014Z,7.20
2023-04-18T16:47:43.604Z,6.35
2023-04-18T16:52:45.299Z,6.70
2023-04-18T16:57:46.829Z,8.43
2023-04-18T17:07:51.776Z,7.57
2023-04-18T17:12:53.695Z,8.48
2023-04-18T17:17:56.516Z,7.55
2023-04-18T17:22:58.148Z,7.45
2023-04-18T17:28:02.167Z,7.20
2023-04-18T17:33:03.875Z,9.13
2023-04-18T17:38:05.426Z,7.97
2023-04-18T17:43:06.943Z,6.90
2023-04-18T17:48:08.536Z,7.40
2023-04-18T17:53:11.983Z,12.23
2023-04-18T17:58:13.566Z,7.43
2023-04-18T18:03:16.040Z,6.38
2023-04-18T18:08:17.709Z,7.35
2023-04-18T18:13:19.314Z,8.23
2023-04-18T18:18:21.085Z,9.10
2023-04-18T18:23:23.245Z,11.38
2023-04-18T18:28:24.934Z,7.57
2023-04-18T18:33:26.549Z,9.48
2023-04-18T18:38:28.098Z,7.20
2023-04-18T18:43:29.618Z,9.73
2023-04-18T18:48:34.172Z,8.27
2023-04-18T18:53:37.202Z,8.93
2023-04-18T18:58:40.476Z,12.40
2023-04-18T19:03:42.555Z,8.07
2023-04-18T19:08:44.294Z,7.65
2023-04-18T19:13:45.907Z,7.97
2023-04-18T19:18:49.193Z,10.35
2023-04-18T19:23:50.741Z,9.13
2023-04-18T19:28:52.873Z,9.85
2023-04-18T19:33:54.401Z,9.27
2023-04-18T19:38:55.911Z,9.25
2023-04-18T19:43:57.455Z,10.32
2023-04-18T19:48:59.033Z,9.70
2023-04-18T19:54:00.653Z,9.60
2023-04-18T19:59:02.466Z,8.55
2023-04-18T20:04:04.327Z,12.00
2023-04-18T20:09:06.321Z,8.73
2023-04-18T20:14:08.121Z,9.98
2023-04-18T20:19:12.682Z,9.77
2023-04-18T20:24:15.590Z,12.85
2023-04-18T20:29:17.194Z,11.23
2023-04-18T20:34:19.058Z,10.50
2023-04-18T20:39:20.600Z,12.02
2023-04-18T20:44:22.281Z,11.13
2023-04-18T20:49:23.878Z,12.35
2023-04-18T20:54:25.635Z,12.50
2023-04-18T20:59:27.202Z,11.35
2023-04-18T21:04:29.446Z,14.20
2023-04-18T21:09:36.313Z,12.52
2023-04-18T21:14:39.705Z,14.73
2023-04-18T21:19:41.257Z,14.68
2023-04-18T21:24:43.937Z,15.25
2023-04-18T21:29:48.694Z,14.00
2023-04-18T21:34:50.337Z,13.95
2023-04-18T21:39:52.192Z,16.92
2023-04-18T21:44:54.864Z,15.43
2023-04-18T21:49:56.548Z,17.65
2023-04-18T21:54:59.251Z,13.82
2023-04-18T22:00:00.772Z,19.60
2023-04-18T22:05:02.962Z,18.10
2023-04-18T22:10:06.043Z,16.35
2023-04-18T22:15:08.078Z,16.38
2023-04-18T22:20:10.822Z,18.38
2023-04-18T22:25:12.407Z,15.35
2023-04-18T22:30:14.353Z,15.93
2023-04-18T22:35:16.167Z,15.88
2023-04-18T22:40:17.969Z,17.05
2023-04-18T22:45:19.765Z,19.00
2023-04-18T22:50:21.338Z,15.77
2023-04-18T22:55:23.005Z,17.75
2023-04-18T23:00:24.566Z,17.85
2023-04-18T23:05:26.223Z,17.98
2023-04-18T23:10:28.151Z,20.08
2023-04-18T23:15:29.878Z,16.77
2023-04-18T23:20:31.633Z,18.67
2023-04-18T23:25:33.607Z,18.83
2023-04-18T23:30:36.821Z,17.75
2023-04-18T23:35:38.397Z,18.45
2023-04-18T23:40:39.915Z,20.65
2023-04-18T23:45:41.413Z,20.05
2023-04-18T23:50:46.296Z,19.63
2023-04-18T23:55:50.604Z,20.10
